TimeEDT,TemperatureF,Dew PointF,Humidity,Sea Level PressureIn,VisibilityMPH,Wind Direction,Wind SpeedMPH,Gust SpeedMPH,PrecipitationIn,Events,Conditions,WindDirDegrees,DateUTC
12:56 AM,53.1,48.9,86,30.11,10.0,WSW,3.5,-,N/A,,Clear,250,2011-10-25 04:56:00
1:56 AM,52.0,48.9,89,30.11,10.0,WSW,3.5,-,N/A,,Clear,250,2011-10-25 05:56:00
2:56 AM,50.0,48.9,96,30.11,9.0,West,3.5,-,N/A,,Clear,260,2011-10-25 06:56:00
3:56 AM,52.0,48.9,89,30.12,10.0,West,6.9,-,N/A,,Clear,280,2011-10-25 07:56:00
4:56 AM,52.0,48.0,86,30.13,10.0,WNW,6.9,-,N/A,,Clear,290,2011-10-25 08:56:00
5:56 AM,53.1,48.0,83,30.15,10.0,NNW,8.1,-,0.01,,Clear,330,2011-10-25 09:56:00
6:56 AM,52.0,48.0,86,30.18,10.0,NW,6.9,-,N/A,,Clear,320,2011-10-25 10:56:00
7:56 AM,53.1,46.9,80,30.21,10.0,North,9.2,-,N/A,,Clear,350,2011-10-25 11:56:00
8:56 AM,55.9,48.9,77,30.24,10.0,North,9.2,-,N/A,,Clear,360,2011-10-25 12:56:00
9:56 AM,61.0,48.9,64,30.26,10.0,NNE,10.4,-,N/A,,Clear,20,2011-10-25 13:56:00
10:56 AM,64.0,45.0,50,30.26,10.0,NNE,15.0,21.9,N/A,,Clear,30,2011-10-25 14:56:00
11:56 AM,66.9,45.0,45,30.25,10.0,NNE,12.7,-,N/A,,Clear,20,2011-10-25 15:56:00
12:56 PM,68.0,43.0,40,30.24,10.0,North,11.5,-,N/A,,Clear,10,2011-10-25 16:56:00
1:56 PM,69.1,41.0,36,30.22,10.0,NNW,8.1,-,N/A,,Clear,340,2011-10-25 17:56:00
2:56 PM,70.0,41.0,35,30.20,9.0,NNW,3.5,-,N/A,,Clear,340,2011-10-25 18:56:00
3:56 PM,72.0,39.9,31,30.20,10.0,North,4.6,-,N/A,,Clear,10,2011-10-25 19:56:00
4:56 PM,70.0,37.9,31,30.19,10.0,Variable,4.6,-,N/A,,Clear,0,2011-10-25 20:56:00
5:56 PM,68.0,39.9,36,30.18,10.0,Calm,Calm,-,N/A,,Clear,0,2011-10-25 21:56:00
6:56 PM,55.0,50.0,83,30.19,10.0,Calm,Calm,-,N/A,,Clear,0,2011-10-25 22:56:00
7:56 PM,53.1,48.9,86,30.20,10.0,Calm,Calm,-,N/A,,Clear,0,2011-10-25 23:56:00
8:56 PM,52.0,48.9,89,30.20,10.0,Calm,Calm,-,N/A,,Clear,0,2011-10-26 00:56:00
9:56 PM,50.0,48.0,93,30.20,10.0,Calm,Calm,-,N/A,,Clear,0,2011-10-26 01:56:00
10:56 PM,48.9,46.9,93,30.21,10.0,Calm,Calm,-,N/A,,Clear,0,2011-10-26 02:56:00
11:56 PM,48.0,46.9,96,30.21,10.0,Calm,Calm,-,N/A,,Clear,0,2011-10-26 03:56:00